Time;durP1;ratioP1;P1;durP2;ratioP2;P2;SDS_P1;SDS_P2;PMS_P1;PMS_P2;Temp;Humidity;BMP_temperature;BMP_pressure;BME280_temperature;BME280_humidity;BME280_pressure;Samples;Min_cycle;Max_cycle;Signal;HPM_P1;HPM_P2
2022/06/17 00:01:24;;;;;;;4.30;2.10;;;;;;;12.45;85.55;99067.84;5046545;28;20257;-68
2022/06/17 00:03:51;;;;;;;4.22;1.95;;;;;;;12.45;85.16;99062.56;5046630;28;20025;-68
2022/06/17 00:06:18;;;;;;;4.05;2.13;;;;;;;12.53;85.43;99068.53;5046541;28;20047;-68
2022/06/17 00:08:46;;;;;;;5.75;2.60;;;;;;;12.54;85.82;99065.03;5046498;28;20025;-68
2022/06/17 00:11:15;;;;;;;4.78;2.38;;;;;;;12.45;85.63;99066.97;5046375;28;20022;-68
2022/06/17 00:13:41;;;;;;;5.22;2.50;;;;;;;12.25;86.24;99059.41;5046317;28;20033;-68
2022/06/17 00:16:17;;;;;;;6.40;2.60;;;;;;;12.32;86.67;99066.34;5047107;28;20033;-68
2022/06/17 00:18:42;;;;;;;4.82;2.10;;;;;;;12.15;87.23;99059.66;5046137;28;20038;-68
2022/06/17 00:21:26;;;;;;;2.97;2.20;;;;;;;12.19;87.83;99061.31;5046292;28;20040;-68
2022/06/17 00:23:52;;;;;;;2.50;1.80;;;;;;;12.28;87.71;99064.63;5046284;28;20097;-68
2022/06/17 00:26:18;;;;;;;3.90;2.17;;;;;;;12.32;87.14;99065.47;5063304;28;20029;-68
2022/06/17 00:28:44;;;;;;;4.50;2.30;;;;;;;12.28;86.98;99064.63;5065455;28;20036;-68
2022/06/17 00:31:10;;;;;;;4.30;2.00;;;;;;;12.26;86.94;99069.09;5065752;28;20029;-68
2022/06/17 00:33:35;;;;;;;6.03;2.35;;;;;;;12.31;87.00;99063.75;5065956;28;20213;-68
2022/06/17 00:36:00;;;;;;;3.42;2.42;;;;;;;12.22;86.32;99064.75;5056553;28;20075;-68
2022/06/17 00:38:30;;;;;;;3.88;2.00;;;;;;;12.03;86.83;99057.22;5064561;28;20028;-68
2022/06/17 00:40:58;;;;;;;3.60;2.45;;;;;;;12.05;87.68;99061.56;5045914;28;20025;-68
2022/06/17 00:43:31;;;;;;;3.33;2.17;;;;;;;12.24;85.92;99049.78;5045863;28;20021;-68
2022/06/17 00:46:07;;;;;;;3.75;2.20;;;;;;;12.20;86.30;99055.13;5046103;28;20017;-68
2022/06/17 00:48:39;;;;;;;5.32;2.30;;;;;;;12.00;87.85;99052.00;5046112;28;20025;-68
2022/06/17 00:51:13;;;;;;;4.07;2.40;;;;;;;12.10;88.57;99057.09;5045799;28;20033;-68
2022/06/17 00:54:01;;;;;;;6.55;2.30;;;;;;;12.10;88.62;99058.84;5057422;28;20050;-68
2022/06/17 00:56:31;;;;;;;2.65;1.83;;;;;;;12.09;88.77;99057.97;5063632;28;20122;-68
2022/06/17 00:59:00;;;;;;;6.38;2.53;;;;;;;12.23;88.15;99057.72;5045588;28;20028;-68
2022/06/17 01:01:38;;;;;;;6.50;2.05;;;;;;;12.09;88.61;99052.69;5056514;28;20025;-68
2022/06/17 01:04:05;;;;;;;3.45;2.03;;;;;;;12.25;88.42;99058.56;5065143;28;20216;-68
2022/06/17 01:06:36;;;;;;;3.22;2.30;;;;;;;12.31;87.99;99059.31;5063087;28;20212;-68
2022/06/17 01:12:02;;;;;;;2.85;2.03;;;;;;;12.47;88.05;99050.19;5045319;28;20032;-68
2022/06/17 01:14:29;;;;;;;4.65;2.20;;;;;;;12.24;87.38;99049.78;5045113;28;20022;-68
2022/06/17 01:16:57;;;;;;;4.47;2.40;;;;;;;12.01;88.42;99049.34;5063109;28;20025;-68
2022/06/17 01:19:36;;;;;;;4.57;2.17;;;;;;;11.90;90.00;99045.16;5064477;28;20265;-68
2022/06/17 01:22:20;;;;;;;3.20;2.20;;;;;;;12.04;89.76;99046.66;5064486;28;20205;-68
2022/06/17 01:24:47;;;;;;;5.28;2.40;;;;;;;12.06;89.38;99067.72;5063467;28;20032;-68
2022/06/17 01:27:19;;;;;;;3.20;2.00;;;;;;;12.21;88.71;99068.31;5057132;28;20025;-68
2022/06/17 01:29:45;;;;;;;4.07;2.55;;;;;;;12.24;88.33;99062.97;5064430;28;20036;-68
2022/06/17 01:32:12;;;;;;;4.72;2.65;;;;;;;12.16;88.48;99059.63;5064360;28;20033;-68
2022/06/17 01:34:39;;;;;;;3.38;1.85;;;;;;;11.95;89.04;99061.75;5063972;28;20025;-68
2022/06/17 01:37:06;;;;;;;3.20;2.00;;;;;;;11.81;90.39;99062.03;5056047;28;20025;-68
2022/06/17 01:39:31;;;;;;;2.88;1.98;;;;;;;11.95;90.68;99075.84;5064148;28;20031;-68
2022/06/17 01:41:57;;;;;;;4.65;2.05;;;;;;;12.10;90.13;99080.84;5064146;28;20029;-68
2022/06/17 01:44:26;;;;;;;3.47;1.58;;;;;;;12.16;89.59;99075.47;5064363;28;20047;-68
2022/06/17 01:46:55;;;;;;;3.25;2.10;;;;;;;12.26;89.19;99079.66;5055033;28;20029;-68
2022/06/17 01:49:38;;;;;;;4.50;2.63;;;;;;;12.29;88.93;99076.97;5044587;28;20055;-68
2022/06/17 01:52:18;;;;;;;6.72;1.98;;;;;;;12.24;88.87;99076.16;5043458;28;20037;-68
2022/06/17 01:55:13;;;;;;;2.63;1.58;;;;;;;11.87;89.59;99072.44;5044477;28;20363;-68
2022/06/17 01:58:03;;;;;;;4.78;2.05;;;;;;;11.85;90.30;99078.66;5044710;28;20205;-68
2022/06/17 02:00:29;;;;;;;3.97;2.17;;;;;;;11.88;89.85;99074.22;5056955;28;20036;-68
2022/06/17 02:03:20;;;;;;;2.80;1.98;;;;;;;11.78;90.58;99070.00;5058923;28;20056;-68
2022/06/17 02:05:50;;;;;;;4.85;2.20;;;;;;;11.91;90.53;99079.44;5060525;28;20036;-68
2022/06/17 02:08:16;;;;;;;2.70;1.80;;;;;;;11.93;90.08;99076.75;5063149;28;20328;-68
2022/06/17 02:10:46;;;;;;;3.72;1.85;;;;;;;11.87;90.23;99080.34;5063914;28;20029;-68
2022/06/17 02:13:14;;;;;;;4.10;2.28;;;;;;;11.92;89.94;99081.16;5063770;28;20071;-68
2022/06/17 02:15:40;;;;;;;4.53;2.15;;;;;;;11.96;90.17;99072.28;5064102;28;20396;-68
2022/06/17 02:18:11;;;;;;;2.88;1.77;;;;;;;11.92;89.84;99070.59;5063401;28;20021;-68
2022/06/17 02:20:40;;;;;;;2.17;1.58;;;;;;;11.60;89.49;99065.00;5063584;28;20332;-68
2022/06/17 02:23:06;;;;;;;3.20;1.63;;;;;;;11.50;91.65;99073.94;5063389;28;20025;-68
2022/06/17 02:25:37;;;;;;;3.28;2.38;;;;;;;11.58;90.92;99069.41;5044083;28;20228;-68
2022/06/17 02:28:05;;;;;;;2.55;1.80;;;;;;;11.38;91.03;99066.22;5044276;28;20025;-68
2022/06/17 02:30:31;;;;;;;4.32;1.95;;;;;;;11.52;91.33;99061.59;5044089;28;20232;-68
2022/06/17 02:33:03;;;;;;;2.83;1.77;;;;;;;11.62;91.15;99057.09;5049964;28;20021;-68
2022/06/17 02:35:46;;;;;;;4.68;2.20;;;;;;;11.57;91.17;99057.13;5053363;28;20017;-68
2022/06/17 02:38:21;;;;;;;5.88;2.10;;;;;;;11.49;91.31;99053.75;5043952;28;20375;-68
2022/06/17 02:40:50;;;;;;;2.53;1.90;;;;;;;11.36;90.88;99052.19;5063158;28;20347;-68
2022/06/17 02:43:22;;;;;;;3.28;1.92;;;;;;;11.40;92.10;99059.19;5063368;28;20028;-68
2022/06/17 02:45:53;;;;;;;2.63;2.00;;;;;;;11.34;91.64;99056.63;5063235;28;20032;-68
2022/06/17 02:48:26;;;;;;;2.15;1.60;;;;;;;11.25;92.32;99055.88;5062120;28;20017;-68
2022/06/17 02:50:54;;;;;;;4.68;2.50;;;;;;;11.39;91.79;99060.03;5063122;28;20025;-68
2022/06/17 02:53:27;;;;;;;3.78;1.88;;;;;;;11.46;91.99;99067.00;5061788;28;20033;-68
2022/06/17 02:55:53;;;;;;;4.10;2.10;;;;;;;11.46;92.32;99064.34;5054778;28;20047;-68
2022/06/17 02:58:33;;;;;;;3.90;1.95;;;;;;;11.57;92.39;99072.06;5046603;28;20331;-68
2022/06/17 03:00:58;;;;;;;1.98;1.42;;;;;;;11.60;91.70;99072.91;5063155;28;20032;-68
2022/06/17 03:03:24;;;;;;;3.08;1.70;;;;;;;11.59;91.43;99060.63;5063300;28;20028;-68
2022/06/17 03:05:50;;;;;;;4.72;2.22;;;;;;;11.53;91.36;99068.63;5063217;28;20048;-68
2022/06/17 03:08:29;;;;;;;2.47;1.52;;;;;;;11.34;91.14;99069.81;5061472;28;20025;-68
2022/06/17 03:10:59;;;;;;;3.80;1.90;;;;;;;11.14;92.44;99063.97;5063129;28;20024;-68
2022/06/17 03:13:38;;;;;;;6.20;1.90;;;;;;;11.08;93.57;99066.69;5060266;28;20044;-68
2022/06/17 03:16:07;;;;;;;3.30;2.03;;;;;;;11.26;93.94;99063.78;5063056;28;20078;-68
2022/06/17 03:18:33;;;;;;;3.25;1.88;;;;;;;11.39;92.59;99069.75;5061486;28;20045;-68
2022/06/17 03:21:01;;;;;;;6.38;2.22;;;;;;;11.27;92.25;99067.28;5063049;28;20029;-68
2022/06/17 03:23:39;;;;;;;2.50;1.92;;;;;;;11.08;92.92;99066.69;5063556;28;20017;-68
2022/06/17 03:26:13;;;;;;;3.10;2.03;;;;;;;11.13;93.22;99067.50;5066339;28;20036;-68
2022/06/17 03:28:48;;;;;;;3.65;2.17;;;;;;;11.11;92.73;99061.38;5060583;28;20063;-68
2022/06/17 03:31:29;;;;;;;3.25;1.60;;;;;;;11.23;92.20;99063.81;5047250;28;20036;-68
2022/06/17 03:34:05;;;;;;;3.88;1.90;;;;;;;11.25;92.72;99079.59;5047212;28;20335;-68
2022/06/17 03:36:38;;;;;;;3.22;2.03;;;;;;;11.34;92.75;99085.63;5047756;28;20048;-68
2022/06/17 03:39:12;;;;;;;5.82;2.08;;;;;;;11.31;92.72;99090.94;5047237;28;20052;-68
2022/06/17 03:41:55;;;;;;;2.90;1.95;;;;;;;11.13;93.58;99091.19;5047157;28;20029;-68
2022/06/17 03:44:25;;;;;;;3.80;1.92;;;;;;;11.26;93.05;99086.63;5060036;28;20080;-68
2022/06/17 03:46:58;;;;;;;2.53;1.90;;;;;;;11.32;92.37;99083.91;5066269;28;20072;-68
2022/06/17 03:49:34;;;;;;;3.78;2.13;;;;;;;11.28;92.26;99090.09;5061107;28;20021;-68
2022/06/17 03:52:09;;;;;;;5.35;2.00;;;;;;;10.98;92.79;99080.88;5047189;28;20025;-68
2022/06/17 03:54:34;;;;;;;3.05;1.85;;;;;;;11.12;92.88;99094.72;5052685;28;20084;-68
2022/06/17 03:57:01;;;;;;;6.05;1.65;;;;;;;11.23;92.66;99098.06;5051776;28;20029;-68
2022/06/17 03:59:30;;;;;;;2.80;1.88;;;;;;;11.18;92.66;99096.41;5046978;28;20026;-68
2022/06/17 04:02:06;;;;;;;3.08;1.85;;;;;;;11.17;93.03;99097.31;5054652;28;20058;-68
2022/06/17 04:04:42;;;;;;;3.67;1.55;;;;;;;11.17;93.38;99092.88;5066741;28;20194;-68
2022/06/17 04:07:11;;;;;;;5.32;2.10;;;;;;;11.29;92.75;99097.97;5066597;28;20319;-68
2022/06/17 04:09:39;;;;;;;3.25;1.60;;;;;;;11.35;92.72;99092.63;5066671;28;20107;-68
2022/06/17 04:12:19;;;;;;;3.30;2.00;;;;;;;11.29;92.95;99108.53;5066642;28;20211;-68
2022/06/17 04:15:16;;;;;;;4.13;1.60;;;;;;;11.23;93.36;99105.97;5066418;28;20021;-68
2022/06/17 04:17:44;;;;;;;3.33;1.70;;;;;;;11.31;93.74;99116.41;5066531;28;20066;-68
2022/06/17 04:20:40;;;;;;;2.17;1.67;;;;;;;11.54;92.80;99115.16;5066226;28;20041;-68
2022/06/17 04:23:12;;;;;;;5.35;2.05;;;;;;;11.62;92.28;99113.34;5066478;28;20071;-68
2022/06/17 04:25:41;;;;;;;3.60;1.85;;;;;;;11.69;91.55;99125.53;5066376;28;20029;-68
2022/06/17 04:28:12;;;;;;;4.88;1.52;;;;;;;11.78;90.92;99130.66;5055072;28;20026;-68
2022/06/17 04:30:42;;;;;;;4.63;2.00;;;;;;;12.05;90.77;99135.44;5046446;28;20320;-68
2022/06/17 04:33:26;;;;;;;1.63;1.33;;;;;;;13.17;87.98;99133.28;5047497;28;20067;-68
2022/06/17 04:36:13;;;;;;;3.63;1.85;;;;;;;14.28;81.48;99122.66;5057989;28;20030;-68
2022/06/17 04:38:53;;;;;;;4.60;1.80;;;;;;;14.97;77.12;99128.66;5045847;28;20048;-68
2022/06/17 04:41:20;;;;;;;3.08;1.40;;;;;;;15.43;75.15;99133.47;5045004;28;20056;-68
2022/06/17 04:43:47;;;;;;;1.92;1.45;;;;;;;16.24;72.26;99136.13;5045156;28;20063;-68
2022/06/17 04:46:36;;;;;;;2.15;1.42;;;;;;;16.90;70.61;99150.56;5045075;28;20044;-68
2022/06/17 04:49:04;;;;;;;2.03;1.42;;;;;;;17.48;68.50;99146.63;5044668;28;20037;-68
2022/06/17 04:51:33;;;;;;;3.20;1.63;;;;;;;18.09;66.95;99147.69;5045242;28;20240;-68
2022/06/17 04:53:59;;;;;;;1.48;1.33;;;;;;;18.59;65.62;99149.13;5044956;28;20028;-68
2022/06/17 04:56:32;;;;;;;4.13;1.88;;;;;;;19.08;63.56;99148.72;5044475;28;20025;-68
2022/06/17 04:58:57;;;;;;;1.73;1.10;;;;;;;18.67;63.94;99147.03;5044893;28;20040;-68
2022/06/17 05:01:25;;;;;;;3.85;2.00;;;;;;;18.47;64.80;99139.88;5045132;28;20021;-68
2022/06/17 05:03:57;;;;;;;1.95;1.40;;;;;;;18.74;64.63;99153.81;5044991;28;20317;-68
2022/06/17 05:06:22;;;;;;;3.58;1.42;;;;;;;18.94;63.61;99160.00;5044728;28;20063;-68
2022/06/17 05:08:51;;;;;;;3.00;1.73;;;;;;;19.54;62.83;99169.72;5044334;28;20025;-68
2022/06/17 05:11:26;;;;;;;2.05;1.50;;;;;;;20.11;62.43;99166.91;5051273;28;20021;-68
2022/06/17 05:14:10;;;;;;;2.25;1.42;;;;;;;19.85;60.63;99159.31;5064368;28;20103;-68
2022/06/17 05:16:36;;;;;;;3.40;1.70;;;;;;;19.77;61.79;99161.47;5064408;28;20408;-68
2022/06/17 05:19:01;;;;;;;3.60;1.52;;;;;;;20.01;62.35;99167.44;5045843;28;20037;-68
2022/06/17 05:21:26;;;;;;;2.78;1.70;;;;;;;20.15;62.41;99176.53;5051616;28;20320;-68
2022/06/17 05:23:55;;;;;;;2.40;1.60;;;;;;;20.71;61.18;99179.91;5064250;28;20027;-68
2022/06/17 05:26:21;;;;;;;1.92;1.35;;;;;;;21.15;59.81;99177.63;5064161;28;20032;-68
2022/06/17 05:28:47;;;;;;;2.58;1.70;;;;;;;21.49;59.94;99182.00;5064025;28;20103;-68
2022/06/17 05:31:20;;;;;;;2.33;1.48;;;;;;;21.85;59.14;99182.69;5068412;28;20020;-68
2022/06/17 05:33:47;;;;;;;2.17;1.70;;;;;;;22.14;58.39;99174.72;5075940;28;20031;-68
2022/06/17 05:36:12;;;;;;;1.80;1.45;;;;;;;22.57;57.30;99176.69;5084010;28;20021;-68
2022/06/17 05:38:38;;;;;;;2.42;1.45;;;;;;;22.16;58.07;99172.84;5070698;28;20036;-68
2022/06/17 05:41:05;;;;;;;2.03;1.70;;;;;;;22.30;57.96;99169.38;5057421;28;20021;-68
2022/06/17 05:43:31;;;;;;;3.13;1.90;;;;;;;22.95;55.41;99158.28;5043803;28;20025;-68
2022/06/17 05:45:56;;;;;;;5.95;1.80;;;;;;;23.65;54.23;99171.78;5043773;28;20067;-68
2022/06/17 05:48:22;;;;;;;1.70;1.48;;;;;;;23.59;54.41;99176.66;5048829;28;20100;-68
2022/06/17 05:50:47;;;;;;;3.70;1.90;;;;;;;23.95;53.46;99177.88;5053525;28;20033;-68
2022/06/17 05:53:13;;;;;;;3.55;1.95;;;;;;;24.44;50.65;99173.72;5044564;28;20378;-67
2022/06/17 05:55:39;;;;;;;2.22;1.58;;;;;;;24.73;51.22;99177.16;5044847;28;20029;-68
2022/06/17 05:58:05;;;;;;;5.68;1.80;;;;;;;25.17;48.88;99169.56;5044591;28;20213;-70
2022/06/17 06:00:32;;;;;;;3.50;1.70;;;;;;;25.20;49.12;99174.75;5044681;28;20031;-68
2022/06/17 06:03:01;;;;;;;4.47;2.17;;;;;;;25.32;49.16;99179.31;5047057;28;20374;-68
2022/06/17 06:05:29;;;;;;;4.68;1.67;;;;;;;25.16;49.74;99168.69;5044392;28;20013;-68
2022/06/17 06:07:54;;;;;;;2.38;1.65;;;;;;;24.53;50.89;99167.72;5053964;28;20032;-68
2022/06/17 06:10:21;;;;;;;6.53;1.63;;;;;;;23.75;51.60;99156.78;5064307;28;20031;-68
2022/06/17 06:13:03;;;;;;;7.72;1.50;;;;;;;23.15;54.48;99152.53;5050056;28;20097;-68
2022/06/17 06:15:40;;;;;;;3.58;1.88;;;;;;;22.62;54.67;99146.91;5044272;28;20032;-68
2022/06/17 06:18:07;;;;;;;3.08;1.60;;;;;;;22.37;56.60;99154.63;5044245;28;20288;-68
2022/06/17 06:20:32;;;;;;;2.25;1.30;;;;;;;22.57;55.63;99162.41;5044354;28;20028;-68
2022/06/17 06:22:58;;;;;;;4.60;1.58;;;;;;;22.49;57.11;99159.25;5059575;28;20028;-68
2022/06/17 06:25:24;;;;;;;3.88;1.33;;;;;;;22.70;54.41;99158.03;5064299;28;20044;-68
2022/06/17 06:27:50;;;;;;;2.95;1.58;;;;;;;22.28;56.28;99156.03;5064076;28;20021;-68
2022/06/17 06:30:28;;;;;;;2.95;1.45;;;;;;;22.33;56.65;99155.75;5064088;28;20024;-68
2022/06/17 06:33:00;;;;;;;3.38;1.40;;;;;;;21.98;58.47;99159.59;5049164;28;20316;-68
2022/06/17 06:35:32;;;;;;;7.90;1.48;;;;;;;22.01;56.53;99167.47;5044176;28;20021;-68
2022/06/17 06:37:58;;;;;;;4.18;1.60;;;;;;;22.50;55.90;99177.13;5044375;28;20028;-68
2022/06/17 06:40:24;;;;;;;3.50;1.55;;;;;;;22.61;55.99;99180.03;5044073;28;20067;-68
2022/06/17 06:42:51;;;;;;;7.43;1.60;;;;;;;22.65;57.95;99181.59;5044972;28;20052;-68
2022/06/17 06:45:21;;;;;;;2.70;1.50;;;;;;;22.79;55.25;99178.97;5053360;28;20031;-68
2022/06/17 06:47:48;;;;;;;3.92;1.70;;;;;;;23.67;53.17;99186.00;5063844;28;20032;-68
2022/06/17 06:50:20;;;;;;;1.58;1.30;;;;;;;25.00;49.60;99188.75;5063825;28;20025;-68
2022/06/17 06:52:46;;;;;;;6.10;1.55;;;;;;;26.10;48.65;99194.34;5062246;28;20248;-68
2022/06/17 06:55:13;;;;;;;1.90;1.20;;;;;;;26.77;46.03;99196.44;5063699;28;20021;-68
2022/06/17 06:57:59;;;;;;;2.40;1.10;;;;;;;26.90;44.55;99202.63;5063553;28;20075;-68
2022/06/17 07:00:37;;;;;;;3.22;1.30;;;;;;;26.00;45.16;99187.91;5065640;28;20032;-68
2022/06/17 07:03:03;;;;;;;3.00;1.50;;;;;;;26.84;42.76;99201.28;5048005;28;20033;-68
2022/06/17 07:05:30;;;;;;;3.58;1.50;;;;;;;26.21;42.19;99173.69;5047781;28;20067;-68
2022/06/17 07:07:56;;;;;;;3.22;1.55;;;;;;;25.80;43.71;99170.41;5047719;28;20027;-68
2022/06/17 07:10:25;;;;;;;1.65;1.38;;;;;;;25.50;44.08;99166.38;5047966;28;20320;-68
2022/06/17 07:12:52;;;;;;;5.22;1.50;;;;;;;24.55;46.70;99152.31;5064930;28;20029;-68
2022/06/17 07:15:18;;;;;;;3.55;1.17;;;;;;;24.26;46.91;99147.16;5067599;28;20194;-68
2022/06/17 07:17:59;;;;;;;4.22;1.40;;;;;;;24.33;46.19;99156.56;5067656;28;20025;-68
2022/06/17 07:20:26;;;;;;;5.23;1.53;;;;;;;24.63;45.69;99174.22;5067584;28;20102;-68
2022/06/17 07:22:52;;;;;;;4.90;1.65;;;;;;;24.90;44.71;99177.72;5049820;28;20266;-68
2022/06/17 07:25:19;;;;;;;5.10;1.75;;;;;;;24.73;45.94;99180.72;5047754;28;20045;-68
2022/06/17 07:27:44;;;;;;;3.03;1.48;;;;;;;24.98;46.09;99186.16;5047385;28;20032;-68
2022/06/17 07:30:19;;;;;;;1.58;1.25;;;;;;;25.53;45.41;99185.03;5047449;28;20021;-68
2022/06/17 07:32:45;;;;;;;4.20;1.60;;;;;;;25.82;45.57;99189.19;5063435;28;20091;-68
2022/06/17 07:35:11;;;;;;;3.25;1.30;;;;;;;25.51;42.90;99184.25;5067090;28;20075;-68
2022/06/17 07:40:21;;;;;;;1.95;1.17;;;;;;;24.97;45.63;99184.41;5067035;28;20346;-68
2022/06/17 07:42:46;;;;;;;2.70;1.17;;;;;;;;;;5050609;28;20048;-68
2022/06/17 07:45:16;;;;;;;6.10;1.57;;;;;;;24.82;47.21;99185.50;5047022;28;20047;-68
2022/06/17 07:47:42;;;;;;;3.20;1.77;;;;;;;25.69;44.74;99194.59;5046961;28;20263;-68
2022/06/17 07:50:11;;;;;;;4.70;1.40;;;;;;;26.87;42.85;99181.25;5046909;28;20099;-68
2022/06/17 07:52:36;;;;;;;10.38;1.77;;;;;;;27.75;41.70;99202.22;5061277;28;20021;-68
2022/06/17 07:55:03;;;;;;;1.80;1.42;;;;;;;28.45;40.46;99182.88;5066757;28;20097;-68
2022/06/17 07:57:28;;;;;;;5.15;1.73;;;;;;;29.01;40.91;99200.59;5066806;28;20122;-68
2022/06/17 07:59:53;;;;;;;2.97;1.52;;;;;;;29.02;37.95;99188.75;5066637;28;20025;-68
2022/06/17 08:02:19;;;;;;;2.03;1.13;;;;;;;28.82;38.45;99184.19;5054751;28;20031;-68
2022/06/17 08:04:44;;;;;;;3.55;1.55;;;;;;;27.95;40.31;99178.00;5046663;28;20021;-68
2022/06/17 08:07:10;;;;;;;3.63;1.30;;;;;;;28.61;43.65;99186.03;5046730;28;20021;-68
2022/06/17 08:09:35;;;;;;;2.78;1.40;;;;;;;29.27;38.04;99176.72;5046600;28;20025;-68
2022/06/17 08:12:01;;;;;;;4.63;1.42;;;;;;;29.75;38.79;99185.13;5046102;28;20216;-68
2022/06/17 08:14:26;;;;;;;3.70;1.50;;;;;;;29.55;36.56;99184.16;5046480;28;20045;-68
2022/06/17 08:16:52;;;;;;;3.90;1.45;;;;;;;29.00;37.48;99174.50;5046439;28;20028;-68
2022/06/17 08:19:18;;;;;;;4.00;1.55;;;;;;;29.52;36.86;99172.72;5046258;28;20068;-68
2022/06/17 08:21:44;;;;;;;3.92;1.25;;;;;;;29.78;36.25;99184.88;5052752;28;20033;-68
2022/06/17 08:24:09;;;;;;;2.67;1.30;;;;;;;29.95;36.45;99195.06;5066218;28;20067;-68
2022/06/17 08:26:35;;;;;;;2.28;1.30;;;;;;;30.73;35.50;99193.31;5066247;28;20020;-68
2022/06/17 08:29:00;;;;;;;2.63;1.10;;;;;;;31.31;36.57;99195.03;5066157;28;20024;-68
2022/06/17 08:31:26;;;;;;;3.67;1.48;;;;;;;31.33;34.78;99193.03;5058581;28;20060;-68
2022/06/17 08:33:51;;;;;;;4.43;1.33;;;;;;;31.32;35.17;99190.47;5046072;28;20017;-68
2022/06/17 08:36:22;;;;;;;3.33;1.23;;;;;;;31.67;34.59;99183.38;5046133;28;20028;-68
2022/06/17 08:38:53;;;;;;;3.90;2.10;;;;;;;32.16;34.68;99172.13;5063537;28;20025;-68
2022/06/17 08:41:18;;;;;;;;;;;;;;;31.86;34.69;99174.28;5059958;28;20036;-68
2022/06/17 08:43:56;;;;;;;2.33;1.47;;;;;;;31.48;34.16;99175.25;5046121;28;19908;-68
2022/06/17 08:46:45;;;;;;;2.67;1.30;;;;;;;31.62;34.36;99176.63;5046005;28;20021;-68
2022/06/17 08:49:33;;;;;;;2.88;1.20;;;;;;;32.31;33.36;99175.19;5045333;28;20030;-68
2022/06/17 08:52:34;;;;;;;2.42;1.30;;;;;;;31.19;34.01;99168.94;5057507;28;20028;-68
2022/06/17 08:54:59;;;;;;;;;;;;;;;30.30;34.85;99163.78;5066096;28;20351;-68
2022/06/17 08:57:35;;;;;;;6.47;1.23;;;;;;;30.75;35.55;99183.19;5065934;28;19904;-68
2022/06/17 09:00:20;;;;;;;4.57;1.23;;;;;;;32.04;33.43;99197.84;5065427;28;20031;-69
2022/06/17 09:03:08;;;;;;;2.38;1.50;;;;;;;32.74;34.20;99200.72;5047805;28;20033;-69
2022/06/17 09:05:40;;;;;;;3.30;1.33;;;;;;;33.28;31.71;99198.88;5045714;28;20051;-69
2022/06/17 09:08:33;;;;;;;2.38;1.10;;;;;;;32.81;29.73;99180.00;5045727;28;20025;-69
2022/06/17 09:11:21;;;;;;;9.25;1.10;;;;;;;32.98;30.26;99200.16;5048187;28;20047;-69
2022/06/17 09:14:05;;;;;;;1.55;0.90;;;;;;;33.19;30.81;99188.91;5065386;28;20269;-69
2022/06/17 09:16:40;;;;;;;2.33;0.80;;;;;;;32.55;28.37;99181.78;5065421;28;20032;-69
2022/06/17 09:19:08;;;;;;;1.85;1.45;;;;;;;32.24;30.02;99177.66;5064850;28;20252;-69
2022/06/17 09:21:45;;;;;;;1.73;0.98;;;;;;;32.00;29.33;99177.38;5056600;28;20029;-69
2022/06/17 09:24:19;;;;;;;1.02;0.90;;;;;;;32.12;29.64;99170.72;5045091;28;20024;-69
2022/06/17 09:26:55;;;;;;;4.03;0.85;;;;;;;32.48;29.03;99177.97;5048997;28;20053;-69
2022/06/17 09:29:41;;;;;;;2.45;1.08;;;;;;;31.90;28.65;99172.97;5062002;28;20024;-68
2022/06/17 09:32:37;;;;;;;1.17;0.80;;;;;;;32.09;28.54;99181.91;5056163;28;20332;-68
2022/06/17 09:35:14;;;;;;;3.42;1.02;;;;;;;31.64;28.76;99182.78;5056467;28;20024;-68
2022/06/17 09:38:05;;;;;;;1.95;1.05;;;;;;;32.39;29.04;99189.78;5044970;28;20075;-68
2022/06/17 09:40:39;;;;;;;2.35;0.93;;;;;;;32.63;29.50;99187.34;5044789;28;20017;-68
2022/06/17 09:43:22;;;;;;;3.67;1.00;;;;;;;32.56;29.18;99182.66;5064418;28;20217;-68
2022/06/17 09:45:52;;;;;;;3.38;1.40;;;;;;;33.18;29.51;99193.50;5063310;28;20025;-68
2022/06/17 09:48:40;;;;;;;3.22;1.23;;;;;;;31.87;29.83;99186.88;5061462;28;20251;-68
2022/06/17 09:51:14;;;;;;;2.38;1.10;;;;;;;32.17;30.44;99184.72;5051967;28;20033;-68
2022/06/17 09:53:47;;;;;;;1.70;1.10;;;;;;;32.94;30.03;99185.13;5060672;28;20123;-68
2022/06/17 09:56:22;;;;;;;3.40;1.05;;;;;;;33.16;28.91;99183.75;5063561;28;20028;-68
2022/06/17 09:59:12;;;;;;;2.70;0.80;;;;;;;33.56;28.84;99200.50;5063155;28;20035;-68
2022/06/17 10:01:40;;;;;;;2.40;0.77;;;;;;;31.87;28.26;99182.31;5050244;28;20367;-68
2022/06/17 10:04:09;;;;;;;2.65;1.00;;;;;;;32.03;29.46;99187.97;5043495;28;20049;-68
2022/06/17 10:06:59;;;;;;;2.10;0.93;;;;;;;32.06;30.03;99182.22;5047630;28;20062;-68
2022/06/17 10:09:38;;;;;;;2.92;0.88;;;;;;;32.50;30.52;99196.91;5061742;28;20025;-68
2022/06/17 10:12:22;;;;;;;1.23;0.95;;;;;;;32.44;29.73;99192.94;5044346;28;20021;-68
2022/06/17 10:15:21;;;;;;;3.22;1.08;;;;;;;32.57;30.42;99206.16;5043518;28;20033;-68
2022/06/17 10:21:14;;;;;;;1.60;0.90;;;;;;;32.54;30.31;99199.16;5043287;28;20040;-68
2022/06/17 10:24:05;;;;;;;1.85;0.88;;;;;;;32.83;31.42;99198.94;5046572;28;20033;-68
2022/06/17 10:26:46;;;;;;;1.98;0.90;;;;;;;33.41;29.75;99193.91;5055091;28;20037;-68
2022/06/17 10:29:45;;;;;;;0.93;0.80;;;;;;;33.08;29.03;99193.59;5063167;28;20092;-68
2022/06/17 10:32:11;;;;;;;1.50;0.90;;;;;;;32.84;28.98;99181.59;5059111;28;20025;-68
2022/06/17 10:34:44;;;;;;;0.80;0.80;;;;;;;32.84;29.96;99181.59;5048490;28;20217;-68
2022/06/17 10:37:11;;;;;;;1.83;0.88;;;;;;;32.85;28.47;99186.91;5053041;28;20045;-68
2022/06/17 10:39:39;;;;;;;2.47;1.10;;;;;;;31.43;28.76;99169.38;5062718;28;20278;-68
2022/06/17 10:42:07;;;;;;;1.67;0.95;;;;;;;31.37;29.00;99183.56;5053175;28;20216;-68
2022/06/17 10:44:33;;;;;;;2.00;1.02;;;;;;;31.35;29.63;99179.28;5042965;28;20017;-68
2022/06/17 10:47:27;;;;;;;1.20;1.00;;;;;;;32.20;29.62;99191.75;5043214;28;20025;-68
2022/06/17 10:49:58;;;;;;;1.15;0.77;;;;;;;32.74;28.65;99198.00;5043727;28;20080;-68
2022/06/17 10:52:53;;;;;;;2.78;1.10;;;;;;;31.83;29.12;99180.91;5042932;28;20029;-69
2022/06/17 10:55:25;;;;;;;2.25;1.00;;;;;;;31.77;29.69;99186.91;5042437;28;20264;-69
2022/06/17 10:58:18;;;;;;;1.45;0.90;;;;;;;31.21;29.12;99161.53;5042884;28;20021;-68
2022/06/17 11:00:56;;;;;;;1.33;0.95;;;;;;;31.71;31.96;99182.06;5042671;28;20045;-68
2022/06/17 11:03:28;;;;;;;1.73;0.98;;;;;;;32.25;29.37;99187.56;5042468;28;20096;-70
2022/06/17 11:06:17;;;;;;;1.92;1.10;;;;;;;32.01;31.08;99173.63;5043043;28;20033;-70
2022/06/17 11:08:48;;;;;;;1.55;1.08;;;;;;;32.12;29.84;99168.00;5043007;28;20251;-70
2022/06/17 11:14:01;;;;;;;2.00;1.00;;;;;;;32.88;31.41;99170.25;5042656;28;20044;-70
2022/06/17 11:16:36;;;;;;;1.77;1.20;;;;;;;32.17;30.34;99157.47;5042277;28;20376;-70
2022/06/17 11:19:05;;;;;;;1.73;1.00;;;;;;;32.94;31.21;99180.50;5058453;28;20074;-70
2022/06/17 11:21:44;;;;;;;1.25;1.00;;;;;;;33.39;31.05;99169.47;5062562;28;20031;-70
2022/06/17 11:24:22;;;;;;;1.83;0.93;;;;;;;33.19;29.92;99154.31;5042907;28;20317;-70
2022/06/17 11:27:25;;;;;;;2.25;1.23;;;;;;;32.90;29.74;99151.00;5042815;28;20017;-70
2022/06/17 11:29:53;;;;;;;2.72;1.10;;;;;;;32.15;30.26;99137.72;5042165;28;20025;-70
2022/06/17 11:32:30;;;;;;;1.33;1.00;;;;;;;32.16;30.24;99142.16;5050614;28;20271;-70
2022/06/17 11:35:35;;;;;;;1.80;1.23;;;;;;;31.86;30.90;99142.44;5062612;28;20036;-70
2022/06/17 11:38:03;;;;;;;2.20;1.33;;;;;;;31.29;30.76;99141.78;5062830;28;20028;-70
2022/06/17 11:40:35;;;;;;;2.55;1.33;;;;;;;31.21;31.89;99142.47;5062597;28;20233;-70
2022/06/17 11:43:03;;;;;;;;;;;;;;;31.44;33.69;99152.03;5048741;28;20328;-70
2022/06/17 11:45:28;;;;;;;2.08;1.65;;;;;;;31.32;29.75;99141.50;5043000;28;19909;-70
2022/06/17 11:48:19;;;;;;;1.30;1.00;;;;;;;31.80;31.69;99143.03;5046318;28;20047;-69
2022/06/17 11:51:02;;;;;;;4.10;1.40;;;;;;;31.29;30.28;99126.34;5046119;28;20100;-70
2022/06/17 11:53:29;;;;;;;1.55;1.02;;;;;;;31.07;33.24;99132.91;5046995;28;20029;-70
2022/06/17 11:55:55;;;;;;;3.10;1.30;;;;;;;30.82;32.27;99119.06;5045529;28;20028;-70
2022/06/17 11:58:20;;;;;;;2.40;1.10;;;;;;;30.35;32.17;99114.47;5045850;28;20029;-70
2022/06/17 12:00:54;;;;;;;2.35;1.23;;;;;;;30.08;33.39;99097.97;5045775;28;20021;-70
2022/06/17 12:03:37;;;;;;;1.77;1.10;;;;;;;30.18;33.73;99110.56;5061507;28;20282;-70
2022/06/17 12:06:06;;;;;;;2.30;1.00;;;;;;;30.13;34.02;99098.38;5065661;28;20025;-70
2022/06/17 12:08:42;;;;;;;2.80;1.00;;;;;;;29.88;32.29;99085.31;5065238;28;20043;-70
2022/06/17 12:11:14;;;;;;;4.10;1.25;;;;;;;29.41;31.44;99084.13;5065608;28;20020;-70